createdAt,value
2023-08-25T00:01:35.613Z,9.48
2023-08-25T00:04:02.505Z,9.30
2023-08-25T00:06:29.167Z,9.70
2023-08-25T00:08:55.713Z,9.48
2023-08-25T00:11:22.411Z,8.50
2023-08-25T00:13:49.070Z,9.45
2023-08-25T00:16:15.775Z,9.35
2023-08-25T00:18:42.498Z,8.80
2023-08-25T00:21:09.077Z,8.93
2023-08-25T00:26:02.866Z,8.82
2023-08-25T00:28:29.441Z,8.77
2023-08-25T00:30:56.390Z,9.23
2023-08-25T00:33:23.221Z,8.85
2023-08-25T00:35:49.849Z,8.88
2023-08-25T00:38:16.486Z,9.32
2023-08-25T00:40:43.209Z,8.77
2023-08-25T00:43:10.386Z,9.23
2023-08-25T00:45:42.587Z,9.30
2023-08-25T00:48:12.052Z,9.13
2023-08-25T00:50:40.013Z,8.82
2023-08-25T00:53:07.329Z,9.55
2023-08-25T00:55:36.266Z,8.88
2023-08-25T00:58:06.842Z,8.98
2023-08-25T01:00:33.574Z,9.18
2023-08-25T01:03:01.895Z,9.43
2023-08-25T01:05:28.656Z,9.38
2023-08-25T01:07:58.527Z,9.63
2023-08-25T01:10:51.352Z,8.88
2023-08-25T01:13:25.164Z,8.98
2023-08-25T01:15:54.994Z,8.48
2023-08-25T01:18:28.768Z,9.13
2023-08-25T01:20:56.721Z,9.15
2023-08-25T01:23:35.060Z,9.68
2023-08-25T01:26:03.658Z,8.93
2023-08-25T01:28:30.348Z,8.98
2023-08-25T01:30:58.387Z,8.20
2023-08-25T01:33:25.209Z,8.48
2023-08-25T01:36:11.541Z,8.40
2023-08-25T01:39:01.922Z,8.82
2023-08-25T01:41:44.283Z,8.70
2023-08-25T01:44:14.453Z,8.82
2023-08-25T01:46:44.722Z,8.57
2023-08-25T01:49:14.671Z,8.68
2023-08-25T01:51:41.743Z,9.27
2023-08-25T01:54:08.475Z,9.23
2023-08-25T01:56:35.074Z,10.00
2023-08-25T01:59:01.749Z,8.98
2023-08-25T02:01:29.773Z,8.13
2023-08-25T02:03:56.465Z,8.90
2023-08-25T02:06:23.039Z,9.15
2023-08-25T02:08:49.619Z,8.95
2023-08-25T02:11:16.399Z,9.55
2023-08-25T02:13:42.979Z,9.35
2023-08-25T02:16:09.672Z,9.45
2023-08-25T02:18:36.345Z,9.40
2023-08-25T02:21:03.413Z,8.98
2023-08-25T02:23:30.135Z,8.60
2023-08-25T02:25:57.232Z,9.00
2023-08-25T02:28:23.828Z,8.63
2023-08-25T02:30:50.472Z,8.68
2023-08-25T02:33:17.029Z,9.20
2023-08-25T02:35:43.822Z,8.45
2023-08-25T02:38:11.619Z,8.20
2023-08-25T02:40:41.643Z,9.07
2023-08-25T02:43:08.900Z,9.38
2023-08-25T02:45:36.877Z,9.63
2023-08-25T02:48:04.298Z,9.70
2023-08-25T02:50:31.580Z,9.60
2023-08-25T02:52:58.313Z,9.23
2023-08-25T02:55:25.294Z,9.20
2023-08-25T02:57:52.930Z,8.75
2023-08-25T03:00:24.982Z,8.90
2023-08-25T03:02:52.926Z,9.18
2023-08-25T03:05:20.938Z,10.40
2023-08-25T03:07:47.574Z,9.60
2023-08-25T03:10:14.233Z,9.65
2023-08-25T03:12:41.177Z,9.73
2023-08-25T03:15:08.730Z,10.65
2023-08-25T03:17:35.937Z,9.20
2023-08-25T03:20:04.087Z,9.10
2023-08-25T03:22:31.146Z,9.07
2023-08-25T03:24:57.936Z,9.38
2023-08-25T03:27:24.560Z,8.43
2023-08-25T03:29:51.183Z,9.63
2023-08-25T03:32:17.767Z,9.20
2023-08-25T03:34:44.312Z,8.20
2023-08-25T03:37:12.833Z,8.60
2023-08-25T03:39:39.763Z,9.02
2023-08-25T03:42:06.857Z,9.10
2023-08-25T03:44:33.586Z,10.25
2023-08-25T03:47:00.274Z,10.25
2023-08-25T03:49:29.535Z,9.77
2023-08-25T03:51:57.457Z,9.57
2023-08-25T03:54:24.348Z,10.05
2023-08-25T03:56:50.975Z,9.30
2023-08-25T03:59:17.570Z,9.20
2023-08-25T04:01:44.283Z,9.52
2023-08-25T04:04:10.840Z,9.23
2023-08-25T04:06:37.384Z,9.30
2023-08-25T04:09:03.993Z,9.10
2023-08-25T04:11:30.554Z,9.95
2023-08-25T04:13:57.174Z,9.25
2023-08-25T04:16:23.918Z,10.10
2023-08-25T04:18:50.545Z,9.85
2023-08-25T04:21:17.228Z,9.27
2023-08-25T04:23:43.805Z,9.35
2023-08-25T04:26:10.413Z,8.48
2023-08-25T04:28:36.975Z,8.23
2023-08-25T04:31:03.838Z,8.65
2023-08-25T04:33:30.707Z,8.25
2023-08-25T04:35:57.411Z,8.60
2023-08-25T04:38:24.222Z,7.93
2023-08-25T04:40:50.857Z,8.35
2023-08-25T04:43:17.687Z,8.00
2023-08-25T04:45:44.338Z,7.22
2023-08-25T04:48:11.049Z,7.85
2023-08-25T04:50:37.744Z,8.32
2023-08-25T04:53:04.701Z,8.30
2023-08-25T04:55:31.400Z,8.05
2023-08-25T04:57:58.107Z,7.85
2023-08-25T05:00:24.808Z,8.18
2023-08-25T05:02:51.541Z,8.13
2023-08-25T05:05:18.824Z,8.80
2023-08-25T05:07:46.556Z,8.25
2023-08-25T05:10:13.549Z,8.23
2023-08-25T05:12:41.305Z,7.88
2023-08-25T05:15:08.928Z,8.23
2023-08-25T05:17:35.548Z,7.97
2023-08-25T05:20:02.215Z,7.90
2023-08-25T05:22:29.060Z,8.73
2023-08-25T05:24:55.794Z,8.35
2023-08-25T05:27:22.455Z,8.65
2023-08-25T05:29:50.640Z,8.27
2023-08-25T05:32:17.212Z,8.40
2023-08-25T05:34:43.828Z,8.57
2023-08-25T05:37:10.618Z,8.88
2023-08-25T05:39:37.400Z,7.80
2023-08-25T05:42:04.210Z,8.38
2023-08-25T05:44:30.896Z,8.50
2023-08-25T05:46:58.446Z,7.05
2023-08-25T05:49:25.101Z,8.73
2023-08-25T05:51:52.411Z,7.72
2023-08-25T05:54:19.338Z,7.65
2023-08-25T05:56:46.070Z,7.43
2023-08-25T05:59:12.781Z,7.97
2023-08-25T06:01:39.613Z,7.18
2023-08-25T06:04:06.450Z,8.63
2023-08-25T06:06:33.433Z,8.82
2023-08-25T06:09:00.390Z,8.38
2023-08-25T06:11:27.185Z,9.70
2023-08-25T06:13:53.789Z,10.23
2023-08-25T06:16:20.546Z,10.32
2023-08-25T06:18:47.240Z,10.57
2023-08-25T06:21:13.879Z,11.00
2023-08-25T06:23:41.009Z,10.88
2023-08-25T06:26:07.730Z,10.20
2023-08-25T06:28:34.884Z,9.70
2023-08-25T06:31:01.881Z,10.15
2023-08-25T06:33:31.212Z,9.82
2023-08-25T06:35:58.938Z,10.32
2023-08-25T06:38:25.696Z,10.02
2023-08-25T06:40:53.573Z,9.82
2023-08-25T06:43:20.261Z,10.25
2023-08-25T06:45:47.707Z,10.45
2023-08-25T06:48:14.753Z,10.48
2023-08-25T06:50:41.970Z,12.27
2023-08-25T06:53:08.961Z,10.60
2023-08-25T06:55:36.320Z,10.50
2023-08-25T06:58:04.187Z,10.05
2023-08-25T07:00:31.389Z,9.88
2023-08-25T07:02:58.134Z,10.73
2023-08-25T07:05:25.435Z,10.77
2023-08-25T07:07:55.178Z,11.80
2023-08-25T07:10:22.290Z,11.68
2023-08-25T07:12:49.614Z,11.43
2023-08-25T07:15:16.188Z,10.65
2023-08-25T07:17:43.184Z,10.52
2023-08-25T07:20:10.700Z,10.90
2023-08-25T07:22:37.755Z,11.70
2023-08-25T07:25:04.720Z,10.70
2023-08-25T07:27:31.277Z,11.52
2023-08-25T07:29:59.116Z,10.38
2023-08-25T07:32:28.185Z,10.30
2023-08-25T07:34:56.656Z,10.55
2023-08-25T07:37:23.612Z,10.90
2023-08-25T07:39:52.314Z,10.13
2023-08-25T07:42:19.002Z,9.27
2023-08-25T07:44:47.357Z,9.50
2023-08-25T07:47:16.713Z,10.15
2023-08-25T07:49:44.305Z,9.82
2023-08-25T07:52:11.354Z,10.15
2023-08-25T07:54:39.229Z,9.90
2023-08-25T07:57:06.384Z,10.38
2023-08-25T07:59:33.415Z,10.90
2023-08-25T08:02:00.271Z,11.25
2023-08-25T08:04:27.157Z,10.02
2023-08-25T08:06:53.953Z,9.60
2023-08-25T08:09:20.602Z,9.90
2023-08-25T08:11:47.462Z,11.93
2023-08-25T08:14:14.043Z,10.57
2023-08-25T08:16:40.662Z,9.63
2023-08-25T08:19:07.385Z,9.70
2023-08-25T08:21:34.367Z,10.02
2023-08-25T08:24:01.999Z,9.75
2023-08-25T08:26:28.918Z,10.07
2023-08-25T08:28:55.558Z,10.00
2023-08-25T08:31:30.513Z,10.10
2023-08-25T08:33:57.266Z,10.23
2023-08-25T08:36:24.710Z,11.18
2023-08-25T08:38:51.294Z,12.73
2023-08-25T08:41:18.827Z,11.40
2023-08-25T08:43:47.217Z,11.27
2023-08-25T08:46:18.688Z,10.57
2023-08-25T08:48:46.213Z,11.50
2023-08-25T08:51:16.121Z,10.13
2023-08-25T08:53:43.003Z,9.85
2023-08-25T08:56:10.491Z,9.52
2023-08-25T08:58:37.060Z,8.20
2023-08-25T09:01:04.940Z,7.28
2023-08-25T09:03:35.666Z,7.25
2023-08-25T09:06:04.447Z,7.05
2023-08-25T09:08:36.839Z,7.07
2023-08-25T09:11:05.329Z,6.80
2023-08-25T09:13:36.067Z,6.45
2023-08-25T09:16:13.508Z,6.18
2023-08-25T09:18:41.023Z,6.95
2023-08-25T09:21:21.283Z,7.85
2023-08-25T09:23:55.850Z,7.60
2023-08-25T09:26:23.420Z,7.90
2023-08-25T09:28:55.715Z,7.70
2023-08-25T09:31:29.820Z,6.70
2023-08-25T09:34:30.075Z,6.85
2023-08-25T09:37:09.964Z,6.00
2023-08-25T09:39:45.986Z,6.78
2023-08-25T09:42:51.079Z,6.63
2023-08-25T09:45:17.762Z,6.20
2023-08-25T09:47:44.509Z,6.53
2023-08-25T09:50:17.059Z,5.75
2023-08-25T09:52:48.236Z,6.35
2023-08-25T09:55:16.006Z,6.00
2023-08-25T09:57:47.126Z,5.50
2023-08-25T10:00:14.514Z,5.85
2023-08-25T10:02:41.303Z,5.65
2023-08-25T10:05:10.662Z,6.03
2023-08-25T10:07:37.380Z,6.18
2023-08-25T10:10:04.472Z,7.07
2023-08-25T10:12:33.071Z,7.40
2023-08-25T10:15:00.877Z,7.82
2023-08-25T10:17:29.585Z,8.20
2023-08-25T10:20:02.288Z,8.05
2023-08-25T10:22:30.878Z,7.93
2023-08-25T10:25:02.672Z,8.20
2023-08-25T10:27:29.820Z,7.35
2023-08-25T10:29:57.748Z,8.20
2023-08-25T10:32:24.417Z,8.77
2023-08-25T10:34:54.561Z,8.95
2023-08-25T10:37:25.714Z,9.10
2023-08-25T10:39:57.135Z,9.25
2023-08-25T10:42:27.735Z,8.88
2023-08-25T10:44:56.284Z,8.10
2023-08-25T10:47:28.891Z,8.60
2023-08-25T10:49:57.012Z,9.00
2023-08-25T10:52:24.176Z,9.45
2023-08-25T10:54:54.789Z,9.52
2023-08-25T10:57:22.273Z,9.25
2023-08-25T10:59:51.917Z,8.02
2023-08-25T11:02:38.457Z,8.63
2023-08-25T11:05:33.292Z,8.63
2023-08-25T11:08:27.133Z,9.13
2023-08-25T11:11:12.391Z,10.70
2023-08-25T11:13:43.718Z,11.75
2023-08-25T11:16:12.294Z,11.95
2023-08-25T11:18:45.877Z,12.50
2023-08-25T11:21:13.038Z,13.15
2023-08-25T11:23:45.030Z,14.43
2023-08-25T11:26:17.540Z,13.05
2023-08-25T11:28:46.915Z,14.13
2023-08-25T11:31:14.116Z,15.27
2023-08-25T11:33:40.911Z,15.75
2023-08-25T11:36:07.696Z,14.52
2023-08-25T11:38:34.506Z,15.35
2023-08-25T11:41:01.146Z,15.02
2023-08-25T11:43:29.703Z,15.65
2023-08-25T11:45:56.693Z,14.82
2023-08-25T11:48:23.693Z,16.30
2023-08-25T11:50:50.402Z,16.23
2023-08-25T11:53:17.574Z,17.17
2023-08-25T11:55:59.240Z,17.73
2023-08-25T11:58:33.030Z,17.10
2023-08-25T12:01:07.866Z,17.15
2023-08-25T12:03:35.537Z,17.85
2023-08-25T12:06:09.511Z,19.58
2023-08-25T12:08:37.564Z,19.90
2023-08-25T12:11:06.643Z,18.33
2023-08-25T12:13:39.089Z,16.77
2023-08-25T12:16:05.910Z,17.07
2023-08-25T12:18:35.074Z,18.70
2023-08-25T12:21:05.013Z,18.80
2023-08-25T12:23:39.776Z,15.93
2023-08-25T12:26:09.109Z,17.77
2023-08-25T12:28:36.131Z,18.27
2023-08-25T12:31:03.355Z,17.08
2023-08-25T12:33:30.214Z,17.75
2023-08-25T12:35:59.127Z,16.50
2023-08-25T12:38:26.249Z,18.98
2023-08-25T12:40:52.996Z,18.25
2023-08-25T12:43:19.656Z,17.90
2023-08-25T12:45:48.860Z,17.92
2023-08-25T12:48:16.059Z,17.58
2023-08-25T12:50:42.646Z,16.83
2023-08-25T12:53:09.268Z,17.30
2023-08-25T12:55:35.834Z,18.33
2023-08-25T12:58:02.433Z,18.70
2023-08-25T13:00:29.615Z,19.98
2023-08-25T13:02:56.798Z,20.13
2023-08-25T13:05:24.596Z,20.15
2023-08-25T13:07:51.947Z,23.80
2023-08-25T13:10:18.947Z,29.35
2023-08-25T13:12:45.781Z,31.33
2023-08-25T13:15:13.593Z,32.58
2023-08-25T13:17:41.615Z,32.03
2023-08-25T13:20:10.140Z,33.38
2023-08-25T13:22:36.748Z,34.08
2023-08-25T13:25:03.469Z,32.17
2023-08-25T13:27:31.280Z,33.85
2023-08-25T13:29:59.753Z,33.15
2023-08-25T13:32:26.375Z,34.95
2023-08-25T13:34:52.927Z,36.67
2023-08-25T13:37:19.918Z,32.83
2023-08-25T13:39:46.527Z,34.85
2023-08-25T13:42:13.200Z,35.42
2023-08-25T13:44:40.040Z,34.88
2023-08-25T13:47:09.735Z,35.88
2023-08-25T13:49:37.886Z,37.00
2023-08-25T13:52:04.783Z,38.30
2023-08-25T13:54:32.156Z,40.50
2023-08-25T13:56:59.578Z,41.78
2023-08-25T13:59:26.833Z,41.00
2023-08-25T14:01:53.547Z,38.95
2023-08-25T14:04:20.219Z,39.30
2023-08-25T14:06:46.915Z,37.83
2023-08-25T14:09:13.620Z,35.85
2023-08-25T14:11:40.331Z,35.45
2023-08-25T14:14:07.039Z,34.80
2023-08-25T14:16:38.092Z,34.78
2023-08-25T14:19:04.733Z,33.20
2023-08-25T14:21:31.501Z,32.60
2023-08-25T14:24:00.976Z,31.75
2023-08-25T14:26:28.367Z,30.42
2023-08-25T14:28:55.479Z,32.97
2023-08-25T14:31:22.383Z,31.75
2023-08-25T14:33:49.024Z,32.70
2023-08-25T14:36:15.707Z,31.15
2023-08-25T14:38:42.467Z,29.42
2023-08-25T14:41:09.152Z,30.50
2023-08-25T14:43:35.797Z,30.73
2023-08-25T14:46:02.676Z,30.13
2023-08-25T14:48:29.347Z,28.73
2023-08-25T14:51:01.591Z,29.40
2023-08-25T14:53:28.484Z,28.60
2023-08-25T14:55:55.423Z,26.85
2023-08-25T14:58:23.317Z,26.73
2023-08-25T15:00:55.006Z,25.20
2023-08-25T15:03:21.836Z,24.38
2023-08-25T15:05:49.172Z,25.27
2023-08-25T15:08:15.831Z,25.38
2023-08-25T15:10:43.258Z,24.33
2023-08-25T15:13:10.266Z,21.98
2023-08-25T15:15:37.306Z,22.25
2023-08-25T15:18:04.352Z,21.55
2023-08-25T15:20:31.143Z,18.00
2023-08-25T15:22:57.765Z,17.85
2023-08-25T15:25:24.380Z,15.90
2023-08-25T15:27:51.052Z,13.90
2023-08-25T15:30:17.627Z,13.88
2023-08-25T15:32:44.321Z,13.98
2023-08-25T15:35:11.540Z,13.25
2023-08-25T15:37:38.185Z,14.13
2023-08-25T15:40:05.633Z,16.83
2023-08-25T15:42:32.303Z,17.13
2023-08-25T15:44:58.924Z,17.42
2023-08-25T15:47:25.538Z,21.08
2023-08-25T15:49:52.156Z,19.17
2023-08-25T15:52:18.737Z,18.35
2023-08-25T15:54:45.396Z,19.10
2023-08-25T15:57:11.980Z,19.58
2023-08-25T15:59:38.614Z,19.83
2023-08-25T16:02:05.294Z,20.77
2023-08-25T16:04:31.863Z,20.77
2023-08-25T16:06:58.599Z,20.10
2023-08-25T16:09:25.182Z,21.15
2023-08-25T16:11:52.292Z,21.73
2023-08-25T16:14:19.177Z,22.40
2023-08-25T16:16:45.965Z,22.52
2023-08-25T16:19:14.654Z,21.42
2023-08-25T16:21:42.541Z,21.73
2023-08-25T16:24:09.370Z,22.50
2023-08-25T16:26:36.049Z,22.60
2023-08-25T16:29:03.282Z,20.35
2023-08-25T16:31:30.063Z,20.65
2023-08-25T16:33:56.761Z,18.90
2023-08-25T16:36:23.460Z,18.05
2023-08-25T16:38:50.151Z,18.10
2023-08-25T16:41:16.767Z,18.27
2023-08-25T16:43:43.500Z,19.13
2023-08-25T16:46:11.440Z,17.10
2023-08-25T16:48:38.115Z,18.23
2023-08-25T16:51:05.033Z,17.90
2023-08-25T16:53:32.262Z,18.15
2023-08-25T16:56:00.210Z,18.20
2023-08-25T16:58:28.637Z,18.77
2023-08-25T17:00:56.404Z,17.67
2023-08-25T17:03:23.524Z,19.08
2023-08-25T17:05:50.222Z,19.67
2023-08-25T17:08:18.651Z,19.90
2023-08-25T17:10:45.772Z,18.98
2023-08-25T17:13:12.473Z,18.60
2023-08-25T17:15:39.183Z,18.85
2023-08-25T17:18:06.321Z,20.08
2023-08-25T17:20:33.289Z,18.90
2023-08-25T17:22:59.998Z,18.42
2023-08-25T17:25:26.821Z,19.98
2023-08-25T17:27:54.807Z,19.60
2023-08-25T17:30:21.594Z,19.02
2023-08-25T17:32:48.292Z,19.63
2023-08-25T17:35:15.001Z,19.67
2023-08-25T17:37:41.809Z,19.67
2023-08-25T17:40:08.932Z,19.20
2023-08-25T17:42:35.976Z,18.48
2023-08-25T17:45:02.708Z,19.30
2023-08-25T17:47:29.952Z,20.02
2023-08-25T17:49:57.903Z,19.30
2023-08-25T17:52:24.538Z,19.63
2023-08-25T17:54:51.110Z,18.75
2023-08-25T17:57:17.909Z,19.83
2023-08-25T17:59:44.605Z,20.95
2023-08-25T18:02:11.439Z,20.10
2023-08-25T18:04:39.532Z,19.05
2023-08-25T18:07:06.724Z,18.45
2023-08-25T18:09:33.474Z,19.75
2023-08-25T18:12:01.593Z,19.63
2023-08-25T18:14:28.518Z,19.35
2023-08-25T18:16:55.244Z,18.88
2023-08-25T18:19:21.974Z,18.05
2023-08-25T18:21:48.734Z,17.60
2023-08-25T18:24:15.504Z,20.05
2023-08-25T18:26:44.431Z,18.27
2023-08-25T18:29:11.708Z,19.58
2023-08-25T18:31:38.809Z,18.25
2023-08-25T18:34:05.831Z,17.35
2023-08-25T18:36:32.459Z,15.77
2023-08-25T18:38:59.078Z,17.85
2023-08-25T18:41:26.386Z,17.48
2023-08-25T18:43:53.236Z,18.73
2023-08-25T18:46:20.190Z,17.10
2023-08-25T18:48:47.011Z,16.85
2023-08-25T18:51:13.690Z,17.20
2023-08-25T18:53:40.810Z,17.42
2023-08-25T18:56:07.761Z,17.90
2023-08-25T18:58:37.718Z,17.70
2023-08-25T19:01:04.891Z,18.55
2023-08-25T19:03:35.035Z,19.48
2023-08-25T19:06:04.435Z,19.52
2023-08-25T19:08:35.074Z,18.65
2023-08-25T19:11:01.769Z,19.88
2023-08-25T19:13:29.292Z,20.70
2023-08-25T19:16:00.476Z,19.58
2023-08-25T19:18:27.391Z,19.33
2023-08-25T19:21:00.655Z,19.67
2023-08-25T19:25:55.931Z,18.98
2023-08-25T19:28:22.631Z,18.98
2023-08-25T19:30:49.316Z,19.95
2023-08-25T19:33:16.790Z,19.50
2023-08-25T19:35:43.673Z,20.40
2023-08-25T19:38:11.053Z,19.85
2023-08-25T19:40:37.841Z,19.88
2023-08-25T19:43:04.627Z,19.83
2023-08-25T19:45:31.316Z,21.35
2023-08-25T19:47:58.037Z,20.10
2023-08-25T19:50:24.653Z,19.60
2023-08-25T19:52:51.240Z,17.73
2023-08-25T19:55:17.931Z,17.85
2023-08-25T19:57:44.526Z,16.52
2023-08-25T20:00:13.093Z,17.90
2023-08-25T20:02:39.966Z,16.40
2023-08-25T20:05:07.280Z,17.10
2023-08-25T20:07:34.076Z,16.52
2023-08-25T20:10:00.702Z,14.82
2023-08-25T20:12:27.273Z,15.23
2023-08-25T20:14:53.877Z,15.32
2023-08-25T20:17:20.496Z,14.82
2023-08-25T20:19:47.433Z,15.35
2023-08-25T20:22:14.047Z,14.07
2023-08-25T20:24:40.631Z,15.05
2023-08-25T20:27:08.254Z,15.05
2023-08-25T20:29:34.903Z,14.55
2023-08-25T20:32:01.500Z,13.82
2023-08-25T20:34:28.155Z,13.98
2023-08-25T20:36:54.728Z,14.10
2023-08-25T20:39:21.299Z,13.63
2023-08-25T20:41:47.944Z,13.70
2023-08-25T20:44:14.654Z,13.70
2023-08-25T20:46:41.720Z,14.82
2023-08-25T20:49:08.434Z,14.23
2023-08-25T20:51:35.108Z,14.10
2023-08-25T20:54:01.753Z,13.73
2023-08-25T20:56:28.497Z,13.77
2023-08-25T20:58:55.117Z,13.73
2023-08-25T21:01:21.812Z,13.77
2023-08-25T21:03:48.594Z,13.57
2023-08-25T21:06:15.421Z,13.30
2023-08-25T21:08:42.157Z,14.45
2023-08-25T21:11:08.752Z,14.13
2023-08-25T21:13:35.458Z,13.98
2023-08-25T21:16:03.121Z,13.38
2023-08-25T21:18:29.842Z,15.00
2023-08-25T21:20:59.462Z,14.75
2023-08-25T21:23:26.023Z,14.95
2023-08-25T21:25:59.444Z,15.27
2023-08-25T21:28:27.872Z,16.08
2023-08-25T21:30:56.782Z,15.20
2023-08-25T21:33:25.617Z,16.10
2023-08-25T21:35:52.861Z,14.88
2023-08-25T21:38:19.787Z,15.25
2023-08-25T21:40:46.465Z,14.98
2023-08-25T21:43:14.100Z,15.55
2023-08-25T21:45:43.022Z,15.82
2023-08-25T21:48:09.780Z,16.13
2023-08-25T21:50:38.637Z,15.88
2023-08-25T21:53:05.196Z,16.10
2023-08-25T21:55:31.978Z,17.08
2023-08-25T21:57:58.647Z,16.33
2023-08-25T22:00:25.213Z,15.77
2023-08-25T22:02:51.930Z,17.00
2023-08-25T22:05:19.583Z,17.13
2023-08-25T22:07:46.162Z,16.50
2023-08-25T22:10:13.021Z,17.42
2023-08-25T22:12:39.699Z,16.52
2023-08-25T22:15:07.096Z,16.95
2023-08-25T22:17:33.798Z,16.52
2023-08-25T22:20:07.075Z,17.08
2023-08-25T22:22:35.033Z,17.35
2023-08-25T22:25:01.870Z,17.67
2023-08-25T22:27:28.505Z,16.85
2023-08-25T22:29:55.257Z,16.80
2023-08-25T22:34:51.614Z,18.95
2023-08-25T22:37:18.230Z,19.17
2023-08-25T22:39:44.798Z,18.95
2023-08-25T22:42:11.355Z,20.40
2023-08-25T22:44:37.989Z,20.58
2023-08-25T22:47:04.847Z,18.42
2023-08-25T22:49:31.473Z,18.08
2023-08-25T22:51:58.125Z,16.88
2023-08-25T22:54:24.733Z,14.43
2023-08-25T22:56:51.312Z,12.45
2023-08-25T22:59:18.036Z,11.70
2023-08-25T23:01:46.908Z,11.30
2023-08-25T23:04:13.652Z,8.93
2023-08-25T23:06:40.407Z,8.07
2023-08-25T23:09:06.972Z,7.68
2023-08-25T23:11:33.601Z,7.90
2023-08-25T23:14:00.852Z,7.68
2023-08-25T23:16:27.977Z,7.32
2023-08-25T23:18:54.645Z,8.05
2023-08-25T23:21:21.428Z,6.75
2023-08-25T23:23:48.189Z,7.75
2023-08-25T23:26:14.839Z,7.00
2023-08-25T23:28:41.817Z,6.55
2023-08-25T23:31:11.364Z,6.07
2023-08-25T23:33:38.275Z,5.38
2023-08-25T23:36:05.052Z,5.65
2023-08-25T23:38:31.797Z,4.53
2023-08-25T23:40:59.444Z,4.90
2023-08-25T23:43:26.106Z,4.35
2023-08-25T23:45:57.496Z,4.13
2023-08-25T23:48:24.738Z,4.60
2023-08-25T23:50:51.396Z,3.78
2023-08-25T23:53:18.055Z,4.63
2023-08-25T23:55:44.936Z,3.50
2023-08-25T23:58:11.615Z,4.32
